Payerne Airport

Airport
ICAO code: 
LSMP
Summary
ICAO Region: 
EUR
Territory: 
Location: 
Morens, Fribourg
Serving: 
Payerne
Elevation: 
1465 ft
Coordinates: 
Aerial View: 
46° 50' 35.549" N, 6° 54' 54.209" E
Metar
Observation
LSMP 060320Z AUTO 00000KT 4700NDV BR FEW015 SCT017 BKN037 M00/M00 Q1010 RMK
Station
Payerne
Date/Time
2021-12-06 03:20:00
Wind direction
Wind speed
00 kts
Lowest cloud amount
few clouds
Temperature
-0°C
Dew point
-0°C
Humidity
100%
QNH
1010 hPa
Weather condition
n/a

Payerne Airport is a military airfield of the Swiss Air Force north of Payerne in Switzerland, located approximately halfway between Lausanne and Bern.

Climatology

Warm mediterranean climate (Köppen climate classification Cfa)

Runways

Designator Length Width Surface Rops
5/23 2858 40 ASP No/No
Airport map: 
Aerial View: 

SKYbrary Partners:

Safety knowledge contributed by: